sensor_id;sensor_type;location;lat;lon;timestamp;pressure;altitude;pressure_sealevel;temperature;humidity
9439;BME280;5176;42.622;25.386;2023-03-25T00:01:37;97006.56;;;9.06;76.53
9439;BME280;5176;42.622;25.386;2023-03-25T00:04:05;97003.22;;;9.04;76.66
9439;BME280;5176;42.622;25.386;2023-03-25T00:06:35;97004.91;;;9.05;76.77
9439;BME280;5176;42.622;25.386;2023-03-25T00:09:05;96992.00;;;9.02;77.05
9439;BME280;5176;42.622;25.386;2023-03-25T00:11:34;96999.19;;;9.13;76.70
9439;BME280;5176;42.622;25.386;2023-03-25T00:14:03;96990.69;;;9.23;75.71
9439;BME280;5176;42.622;25.386;2023-03-25T00:16:32;96992.94;;;9.30;75.67
9439;BME280;5176;42.622;25.386;2023-03-25T00:19:01;96985.59;;;9.35;75.60
9439;BME280;5176;42.622;25.386;2023-03-25T00:21:30;96975.91;;;9.37;75.48
9439;BME280;5176;42.622;25.386;2023-03-25T00:23:59;96980.47;;;9.33;76.03
9439;BME280;5176;42.622;25.386;2023-03-25T00:26:32;96968.34;;;9.32;76.04
9439;BME280;5176;42.622;25.386;2023-03-25T00:29:01;96973.84;;;9.27;76.03
9439;BME280;5176;42.622;25.386;2023-03-25T00:31:29;96972.91;;;9.28;76.29
9439;BME280;5176;42.622;25.386;2023-03-25T00:33:59;96957.03;;;9.32;75.94
9439;BME280;5176;42.622;25.386;2023-03-25T00:36:28;96965.00;;;9.30;75.51
9439;BME280;5176;42.622;25.386;2023-03-25T00:38:57;96957.88;;;9.32;74.96
9439;BME280;5176;42.622;25.386;2023-03-25T00:41:26;96959.00;;;9.28;75.46
9439;BME280;5176;42.622;25.386;2023-03-25T00:44:00;96956.59;;;9.25;75.83
9439;BME280;5176;42.622;25.386;2023-03-25T00:46:30;96957.16;;;9.30;75.41
9439;BME280;5176;42.622;25.386;2023-03-25T00:49:00;96946.88;;;9.27;75.38
9439;BME280;5176;42.622;25.386;2023-03-25T00:51:29;96947.53;;;9.31;75.21
9439;BME280;5176;42.622;25.386;2023-03-25T00:54:00;96945.09;;;9.27;75.67
9439;BME280;5176;42.622;25.386;2023-03-25T00:56:29;96934.72;;;9.26;74.53
9439;BME280;5176;42.622;25.386;2023-03-25T00:59:00;96940.06;;;9.24;74.62
9439;BME280;5176;42.622;25.386;2023-03-25T01:01:29;96934.00;;;9.24;74.96
9439;BME280;5176;42.622;25.386;2023-03-25T01:03:58;96930.72;;;9.20;74.79
9439;BME280;5176;42.622;25.386;2023-03-25T01:06:30;96929.25;;;9.16;74.63
9439;BME280;5176;42.622;25.386;2023-03-25T01:09:03;96943.19;;;8.88;75.40
9439;BME280;5176;42.622;25.386;2023-03-25T01:11:34;96926.88;;;8.56;76.45
9439;BME280;5176;42.622;25.386;2023-03-25T01:14:08;96918.94;;;8.43;78.45
9439;BME280;5176;42.622;25.386;2023-03-25T01:16:38;96920.00;;;8.25;79.07
9439;BME280;5176;42.622;25.386;2023-03-25T01:19:07;96907.69;;;8.27;79.60
9439;BME280;5176;42.622;25.386;2023-03-25T01:21:36;96906.56;;;8.31;79.81
9439;BME280;5176;42.622;25.386;2023-03-25T01:24:07;96912.63;;;8.32;79.37
9439;BME280;5176;42.622;25.386;2023-03-25T01:26:36;96908.03;;;8.21;79.87
9439;BME280;5176;42.622;25.386;2023-03-25T01:29:13;96902.75;;;8.23;80.43
9439;BME280;5176;42.622;25.386;2023-03-25T01:31:43;96899.09;;;8.11;79.76
9439;BME280;5176;42.622;25.386;2023-03-25T01:34:13;96895.44;;;7.99;80.68
9439;BME280;5176;42.622;25.386;2023-03-25T01:36:43;96903.34;;;7.98;80.75
9439;BME280;5176;42.622;25.386;2023-03-25T01:39:16;96885.72;;;8.01;80.73
9439;BME280;5176;42.622;25.386;2023-03-25T01:41:46;96887.03;;;8.08;81.18
9439;BME280;5176;42.622;25.386;2023-03-25T01:47:25;96889.66;;;8.08;80.48
9439;BME280;5176;42.622;25.386;2023-03-25T01:49:54;96889.00;;;8.05;80.07
9439;BME280;5176;42.622;25.386;2023-03-25T01:52:24;96877.06;;;8.01;80.69
9439;BME280;5176;42.622;25.386;2023-03-25T01:54:56;96882.13;;;8.04;80.93
9439;BME280;5176;42.622;25.386;2023-03-25T01:57:26;96880.34;;;8.04;80.40
9439;BME280;5176;42.622;25.386;2023-03-25T01:59:57;96882.66;;;7.95;80.86
9439;BME280;5176;42.622;25.386;2023-03-25T02:02:29;96878.47;;;7.92;80.76
9439;BME280;5176;42.622;25.386;2023-03-25T02:05:08;96883.00;;;7.88;80.61
9439;BME280;5176;42.622;25.386;2023-03-25T02:07:41;96867.72;;;7.82;81.25
9439;BME280;5176;42.622;25.386;2023-03-25T02:10:13;96875.47;;;7.84;81.03
9439;BME280;5176;42.622;25.386;2023-03-25T02:12:43;96873.38;;;7.75;81.51
9439;BME280;5176;42.622;25.386;2023-03-25T02:15:14;96868.16;;;7.75;82.28
9439;BME280;5176;42.622;25.386;2023-03-25T02:17:56;96876.28;;;7.70;81.01
9439;BME280;5176;42.622;25.386;2023-03-25T02:21:02;96871.75;;;7.58;81.58
9439;BME280;5176;42.622;25.386;2023-03-25T02:24:13;96865.38;;;7.48;81.80
9439;BME280;5176;42.622;25.386;2023-03-25T02:27:21;96861.28;;;7.44;82.11
9439;BME280;5176;42.622;25.386;2023-03-25T02:33:40;96854.50;;;7.25;84.33
9439;BME280;5176;42.622;25.386;2023-03-25T02:36:39;96853.31;;;7.31;84.88
9439;BME280;5176;42.622;25.386;2023-03-25T02:39:20;96852.56;;;7.29;84.95
9439;BME280;5176;42.622;25.386;2023-03-25T02:41:53;96860.69;;;7.38;85.38
9439;BME280;5176;42.622;25.386;2023-03-25T02:44:29;96853.16;;;7.48;85.27
9439;BME280;5176;42.622;25.386;2023-03-25T02:47:06;96852.91;;;7.53;84.95
9439;BME280;5176;42.622;25.386;2023-03-25T02:49:39;96844.25;;;7.52;84.70
9439;BME280;5176;42.622;25.386;2023-03-25T02:52:11;96841.44;;;7.55;84.66
9439;BME280;5176;42.622;25.386;2023-03-25T02:54:48;96838.19;;;7.52;85.08
9439;BME280;5176;42.622;25.386;2023-03-25T02:57:20;96833.91;;;7.51;85.10
9439;BME280;5176;42.622;25.386;2023-03-25T02:59:50;96839.88;;;7.53;84.67
9439;BME280;5176;42.622;25.386;2023-03-25T03:02:21;96837.00;;;7.57;84.78
9439;BME280;5176;42.622;25.386;2023-03-25T03:04:53;96835.03;;;7.61;83.98
9439;BME280;5176;42.622;25.386;2023-03-25T03:07:25;96831.50;;;7.62;83.28
9439;BME280;5176;42.622;25.386;2023-03-25T03:10:05;96820.53;;;7.57;83.52
9439;BME280;5176;42.622;25.386;2023-03-25T03:12:47;96822.28;;;7.56;82.68
9439;BME280;5176;42.622;25.386;2023-03-25T03:15:26;96827.09;;;7.48;82.34
9439;BME280;5176;42.622;25.386;2023-03-25T03:18:07;96823.69;;;7.32;83.17
9439;BME280;5176;42.622;25.386;2023-03-25T03:20:43;96823.31;;;7.24;83.77
9439;BME280;5176;42.622;25.386;2023-03-25T03:23:23;96817.75;;;7.14;83.90
9439;BME280;5176;42.622;25.386;2023-03-25T03:26:03;96813.81;;;7.07;84.46
9439;BME280;5176;42.622;25.386;2023-03-25T03:28:43;96818.81;;;6.96;85.35
9439;BME280;5176;42.622;25.386;2023-03-25T03:31:21;96816.28;;;6.94;85.76
9439;BME280;5176;42.622;25.386;2023-03-25T03:33:56;96824.59;;;7.01;85.92
9439;BME280;5176;42.622;25.386;2023-03-25T03:36:32;96822.56;;;7.06;84.39
9439;BME280;5176;42.622;25.386;2023-03-25T03:39:08;96816.44;;;7.07;84.42
9439;BME280;5176;42.622;25.386;2023-03-25T03:41:46;96809.88;;;7.00;84.40
9439;BME280;5176;42.622;25.386;2023-03-25T03:44:19;96806.63;;;6.96;84.86
9439;BME280;5176;42.622;25.386;2023-03-25T03:46:52;96809.81;;;6.86;85.60
9439;BME280;5176;42.622;25.386;2023-03-25T03:49:28;96810.56;;;6.88;84.68
9439;BME280;5176;42.622;25.386;2023-03-25T03:52:05;96824.53;;;6.71;85.01
9439;BME280;5176;42.622;25.386;2023-03-25T03:54:38;96815.47;;;6.62;86.37
9439;BME280;5176;42.622;25.386;2023-03-25T03:57:15;96808.88;;;6.55;86.69
9439;BME280;5176;42.622;25.386;2023-03-25T03:59:54;96810.16;;;6.48;88.35
9439;BME280;5176;42.622;25.386;2023-03-25T04:02:28;96816.78;;;6.53;88.45
9439;BME280;5176;42.622;25.386;2023-03-25T04:05:00;96815.63;;;6.59;87.47
9439;BME280;5176;42.622;25.386;2023-03-25T04:07:33;96820.84;;;6.59;86.08
9439;BME280;5176;42.622;25.386;2023-03-25T04:10:11;96817.72;;;6.68;85.40
9439;BME280;5176;42.622;25.386;2023-03-25T04:12:45;96817.72;;;6.68;86.35
9439;BME280;5176;42.622;25.386;2023-03-25T04:15:16;96812.19;;;6.59;86.37
9439;BME280;5176;42.622;25.386;2023-03-25T04:17:46;96811.25;;;6.60;87.09
9439;BME280;5176;42.622;25.386;2023-03-25T04:20:18;96812.94;;;6.61;86.34
9439;BME280;5176;42.622;25.386;2023-03-25T04:22:49;96805.06;;;6.62;86.24
9439;BME280;5176;42.622;25.386;2023-03-25T04:25:19;96808.66;;;6.60;86.61
9439;BME280;5176;42.622;25.386;2023-03-25T04:27:53;96814.38;;;6.66;86.11
9439;BME280;5176;42.622;25.386;2023-03-25T04:30:25;96813.09;;;6.73;85.91
9439;BME280;5176;42.622;25.386;2023-03-25T04:32:54;96814.88;;;6.73;86.50
9439;BME280;5176;42.622;25.386;2023-03-25T04:35:24;96818.72;;;6.81;85.26
9439;BME280;5176;42.622;25.386;2023-03-25T04:37:53;96819.66;;;6.80;86.27
9439;BME280;5176;42.622;25.386;2023-03-25T04:40:23;96819.00;;;6.77;87.17
9439;BME280;5176;42.622;25.386;2023-03-25T04:42:53;96824.28;;;6.75;87.19
9439;BME280;5176;42.622;25.386;2023-03-25T04:45:24;96819.97;;;6.74;87.94
9439;BME280;5176;42.622;25.386;2023-03-25T04:47:54;96832.16;;;6.74;88.21
9439;BME280;5176;42.622;25.386;2023-03-25T04:50:26;96830.59;;;6.71;88.36
9439;BME280;5176;42.622;25.386;2023-03-25T04:52:55;96841.00;;;6.71;88.34
9439;BME280;5176;42.622;25.386;2023-03-25T04:55:26;96831.66;;;6.67;88.47
9439;BME280;5176;42.622;25.386;2023-03-25T04:57:59;96833.34;;;6.68;88.53
9439;BME280;5176;42.622;25.386;2023-03-25T05:00:28;96832.94;;;6.76;88.85
9439;BME280;5176;42.622;25.386;2023-03-25T05:02:57;96831.09;;;6.78;88.02
9439;BME280;5176;42.622;25.386;2023-03-25T05:05:28;96827.06;;;6.72;88.67
9439;BME280;5176;42.622;25.386;2023-03-25T05:07:56;96829.75;;;6.71;88.67
9439;BME280;5176;42.622;25.386;2023-03-25T05:10:26;96830.72;;;6.68;89.91
9439;BME280;5176;42.622;25.386;2023-03-25T05:13:02;96837.13;;;6.78;90.00
9439;BME280;5176;42.622;25.386;2023-03-25T05:15:32;96835.13;;;6.83;89.83
9439;BME280;5176;42.622;25.386;2023-03-25T05:18:07;96828.56;;;6.92;89.60
9439;BME280;5176;42.622;25.386;2023-03-25T05:20:37;96820.81;;;7.06;89.63
9439;BME280;5176;42.622;25.386;2023-03-25T05:23:08;96822.03;;;7.15;88.53
9439;BME280;5176;42.622;25.386;2023-03-25T05:25:38;96820.50;;;7.27;87.55
9439;BME280;5176;42.622;25.386;2023-03-25T05:28:09;96789.75;;;7.18;87.70
9439;BME280;5176;42.622;25.386;2023-03-25T05:30:40;96824.84;;;7.42;87.30
9439;BME280;5176;42.622;25.386;2023-03-25T05:33:13;96818.88;;;7.40;88.09
9439;BME280;5176;42.622;25.386;2023-03-25T05:35:44;96814.72;;;7.52;88.23
9439;BME280;5176;42.622;25.386;2023-03-25T05:38:13;96821.16;;;7.60;88.43
9439;BME280;5176;42.622;25.386;2023-03-25T05:40:45;96818.28;;;7.65;88.00
9439;BME280;5176;42.622;25.386;2023-03-25T05:43:16;96809.38;;;7.69;87.94
9439;BME280;5176;42.622;25.386;2023-03-25T05:45:49;96816.19;;;7.86;88.54
9439;BME280;5176;42.622;25.386;2023-03-25T05:48:17;96816.28;;;8.13;86.46
9439;BME280;5176;42.622;25.386;2023-03-25T05:50:46;96816.75;;;8.34;85.12
9439;BME280;5176;42.622;25.386;2023-03-25T05:53:16;96818.72;;;8.59;84.64
9439;BME280;5176;42.622;25.386;2023-03-25T05:55:46;96816.34;;;8.83;82.96
9439;BME280;5176;42.622;25.386;2023-03-25T05:58:19;96807.75;;;9.08;81.80
9439;BME280;5176;42.622;25.386;2023-03-25T06:00:51;96807.84;;;9.33;80.01
9439;BME280;5176;42.622;25.386;2023-03-25T06:03:20;96810.72;;;9.55;79.07
9439;BME280;5176;42.622;25.386;2023-03-25T06:05:52;96811.81;;;9.78;76.76
9439;BME280;5176;42.622;25.386;2023-03-25T06:08:21;96810.22;;;10.01;74.58
9439;BME280;5176;42.622;25.386;2023-03-25T06:10:54;96807.53;;;10.28;73.97
9439;BME280;5176;42.622;25.386;2023-03-25T06:13:28;96799.88;;;10.51;72.81
9439;BME280;5176;42.622;25.386;2023-03-25T06:16:00;96803.47;;;10.74;70.64
9439;BME280;5176;42.622;25.386;2023-03-25T06:18:29;96812.28;;;10.97;70.32
9439;BME280;5176;42.622;25.386;2023-03-25T06:20:59;96802.81;;;11.07;68.74
9439;BME280;5176;42.622;25.386;2023-03-25T06:23:30;96805.41;;;11.19;67.41
9439;BME280;5176;42.622;25.386;2023-03-25T06:26:01;96784.66;;;11.28;67.25
9439;BME280;5176;42.622;25.386;2023-03-25T06:28:32;96806.75;;;11.60;67.10
9439;BME280;5176;42.622;25.386;2023-03-25T06:31:01;96810.28;;;11.83;66.41
9439;BME280;5176;42.622;25.386;2023-03-25T06:33:33;96808.78;;;12.03;65.62
9439;BME280;5176;42.622;25.386;2023-03-25T06:36:02;96818.84;;;12.20;64.43
9439;BME280;5176;42.622;25.386;2023-03-25T06:38:31;96812.03;;;12.40;63.98
9439;BME280;5176;42.622;25.386;2023-03-25T06:41:00;96808.34;;;12.65;62.93
9439;BME280;5176;42.622;25.386;2023-03-25T06:43:31;96806.97;;;12.93;61.67
9439;BME280;5176;42.622;25.386;2023-03-25T06:46:00;96806.66;;;13.19;61.28
9439;BME280;5176;42.622;25.386;2023-03-25T06:48:29;96805.78;;;13.41;60.28
9439;BME280;5176;42.622;25.386;2023-03-25T06:50:59;96807.25;;;13.66;58.75
9439;BME280;5176;42.622;25.386;2023-03-25T06:53:28;96812.06;;;13.81;57.96
9439;BME280;5176;42.622;25.386;2023-03-25T06:55:58;96805.75;;;13.94;56.34
9439;BME280;5176;42.622;25.386;2023-03-25T06:58:27;96810.88;;;14.16;56.91
9439;BME280;5176;42.622;25.386;2023-03-25T07:01:03;96814.59;;;14.34;56.45
9439;BME280;5176;42.622;25.386;2023-03-25T07:03:34;96810.41;;;14.53;55.70
9439;BME280;5176;42.622;25.386;2023-03-25T07:06:05;96812.28;;;14.71;55.24
9439;BME280;5176;42.622;25.386;2023-03-25T07:08:34;96804.41;;;14.91;55.03
9439;BME280;5176;42.622;25.386;2023-03-25T07:11:05;96800.00;;;15.11;53.61
9439;BME280;5176;42.622;25.386;2023-03-25T07:13:34;96806.00;;;15.22;53.26
9439;BME280;5176;42.622;25.386;2023-03-25T07:16:09;96779.75;;;15.21;52.20
9439;BME280;5176;42.622;25.386;2023-03-25T07:18:40;96803.25;;;15.53;52.47
9439;BME280;5176;42.622;25.386;2023-03-25T07:21:09;96797.97;;;15.63;51.70
9439;BME280;5176;42.622;25.386;2023-03-25T07:23:39;96791.44;;;15.76;51.40
9439;BME280;5176;42.622;25.386;2023-03-25T07:26:08;96793.75;;;16.08;51.23
9439;BME280;5176;42.622;25.386;2023-03-25T07:28:37;96792.63;;;16.21;49.53
9439;BME280;5176;42.622;25.386;2023-03-25T07:31:13;96791.75;;;16.30;49.74
9439;BME280;5176;42.622;25.386;2023-03-25T07:33:43;96794.63;;;16.46;48.88
9439;BME280;5176;42.622;25.386;2023-03-25T07:36:13;96786.59;;;16.75;48.61
9439;BME280;5176;42.622;25.386;2023-03-25T07:38:42;96785.88;;;17.01;48.19
9439;BME280;5176;42.622;25.386;2023-03-25T07:41:12;96790.16;;;17.29;48.05
9439;BME280;5176;42.622;25.386;2023-03-25T07:43:41;96783.06;;;17.48;47.32
9439;BME280;5176;42.622;25.386;2023-03-25T07:46:13;96791.97;;;17.64;45.42
9439;BME280;5176;42.622;25.386;2023-03-25T07:48:44;96786.69;;;17.82;45.91
9439;BME280;5176;42.622;25.386;2023-03-25T07:51:13;96787.53;;;18.09;44.46
9439;BME280;5176;42.622;25.386;2023-03-25T07:53:43;96782.28;;;18.17;44.42
9439;BME280;5176;42.622;25.386;2023-03-25T07:56:13;96786.59;;;18.44;44.09
9439;BME280;5176;42.622;25.386;2023-03-25T07:58:42;96755.94;;;18.49;43.01
9439;BME280;5176;42.622;25.386;2023-03-25T08:01:15;96780.97;;;18.73;42.63
9439;BME280;5176;42.622;25.386;2023-03-25T08:03:44;96769.75;;;18.87;43.20
9439;BME280;5176;42.622;25.386;2023-03-25T08:06:14;96770.47;;;19.14;42.43
9439;BME280;5176;42.622;25.386;2023-03-25T08:08:43;96770.84;;;19.35;40.90
9439;BME280;5176;42.622;25.386;2023-03-25T08:11:13;96769.69;;;19.46;40.78
9439;BME280;5176;42.622;25.386;2023-03-25T08:13:42;96763.88;;;19.50;40.20
9439;BME280;5176;42.622;25.386;2023-03-25T08:16:14;96764.53;;;19.52;40.01
9439;BME280;5176;42.622;25.386;2023-03-25T08:18:43;96759.63;;;19.74;39.67
9439;BME280;5176;42.622;25.386;2023-03-25T08:21:12;96758.94;;;19.88;39.25
9439;BME280;5176;42.622;25.386;2023-03-25T08:23:41;96762.75;;;20.02;38.42
9439;BME280;5176;42.622;25.386;2023-03-25T08:26:11;96762.56;;;20.20;39.03
9439;BME280;5176;42.622;25.386;2023-03-25T08:28:40;96756.69;;;20.40;38.69
9439;BME280;5176;42.622;25.386;2023-03-25T08:31:09;96746.69;;;20.42;37.79
9439;BME280;5176;42.622;25.386;2023-03-25T08:33:39;96745.06;;;20.25;38.44
9439;BME280;5176;42.622;25.386;2023-03-25T08:36:10;96750.34;;;20.50;38.33
9439;BME280;5176;42.622;25.386;2023-03-25T08:38:40;96739.31;;;20.69;37.23
9439;BME280;5176;42.622;25.386;2023-03-25T08:41:09;96744.50;;;20.62;37.33
9439;BME280;5176;42.622;25.386;2023-03-25T08:43:38;96741.47;;;20.65;37.12
9439;BME280;5176;42.622;25.386;2023-03-25T08:46:07;96736.41;;;20.79;37.74
9439;BME280;5176;42.622;25.386;2023-03-25T08:48:39;96727.00;;;20.99;37.28
9439;BME280;5176;42.622;25.386;2023-03-25T08:51:10;96731.72;;;21.20;36.88
9439;BME280;5176;42.622;25.386;2023-03-25T08:53:39;96729.41;;;21.40;36.45
9439;BME280;5176;42.622;25.386;2023-03-25T08:56:09;96724.69;;;21.27;36.05
9439;BME280;5176;42.622;25.386;2023-03-25T08:58:38;96727.63;;;21.40;35.98
9439;BME280;5176;42.622;25.386;2023-03-25T09:01:08;96717.19;;;21.54;36.06
9439;BME280;5176;42.622;25.386;2023-03-25T09:03:39;96712.59;;;21.62;35.79
9439;BME280;5176;42.622;25.386;2023-03-25T09:06:08;96712.44;;;21.79;36.06
9439;BME280;5176;42.622;25.386;2023-03-25T09:08:37;96714.25;;;22.01;35.00
9439;BME280;5176;42.622;25.386;2023-03-25T09:11:07;96706.09;;;22.17;35.53
9439;BME280;5176;42.622;25.386;2023-03-25T09:13:36;96705.06;;;22.18;34.56
9439;BME280;5176;42.622;25.386;2023-03-25T09:16:05;96696.63;;;22.15;34.46
9439;BME280;5176;42.622;25.386;2023-03-25T09:18:35;96699.31;;;22.07;35.46
9439;BME280;5176;42.622;25.386;2023-03-25T09:21:06;96687.59;;;22.16;34.66
9439;BME280;5176;42.622;25.386;2023-03-25T09:23:35;96696.44;;;22.31;34.88
9439;BME280;5176;42.622;25.386;2023-03-25T09:26:04;96680.16;;;22.41;33.85
9439;BME280;5176;42.622;25.386;2023-03-25T09:28:34;96686.00;;;22.51;34.04
9439;BME280;5176;42.622;25.386;2023-03-25T09:31:03;96687.41;;;22.62;33.65
9439;BME280;5176;42.622;25.386;2023-03-25T09:33:32;96680.38;;;22.75;34.35
9439;BME280;5176;42.622;25.386;2023-03-25T09:36:01;96674.38;;;22.88;34.33
9439;BME280;5176;42.622;25.386;2023-03-25T09:38:32;96670.97;;;23.16;33.83
9439;BME280;5176;42.622;25.386;2023-03-25T09:41:11;96669.69;;;23.33;33.00
9439;BME280;5176;42.622;25.386;2023-03-25T09:43:56;96665.69;;;23.44;32.68
9439;BME280;5176;42.622;25.386;2023-03-25T09:46:30;96665.03;;;23.20;33.38
9439;BME280;5176;42.622;25.386;2023-03-25T09:49:00;96656.66;;;23.23;32.95
9439;BME280;5176;42.622;25.386;2023-03-25T09:51:31;96622.28;;;22.84;33.07
9439;BME280;5176;42.622;25.386;2023-03-25T09:54:16;96644.53;;;22.70;33.32
9439;BME280;5176;42.622;25.386;2023-03-25T09:56:47;96648.78;;;22.64;33.58
9439;BME280;5176;42.622;25.386;2023-03-25T09:59:19;96638.97;;;22.86;33.91
9439;BME280;5176;42.622;25.386;2023-03-25T10:01:54;96632.75;;;23.00;33.40
9439;BME280;5176;42.622;25.386;2023-03-25T10:04:40;96638.34;;;23.27;33.38
9439;BME280;5176;42.622;25.386;2023-03-25T10:07:23;96628.84;;;23.46;32.80
9439;BME280;5176;42.622;25.386;2023-03-25T10:10:00;96629.94;;;23.51;32.17
9439;BME280;5176;42.622;25.386;2023-03-25T10:12:39;96613.19;;;23.64;32.11
9439;BME280;5176;42.622;25.386;2023-03-25T10:15:19;96608.13;;;23.76;32.41
9439;BME280;5176;42.622;25.386;2023-03-25T10:18:01;96604.44;;;23.77;31.92
9439;BME280;5176;42.622;25.386;2023-03-25T10:20:41;96607.63;;;23.93;32.02
9439;BME280;5176;42.622;25.386;2023-03-25T10:23:21;96605.63;;;24.02;31.68
9439;BME280;5176;42.622;25.386;2023-03-25T10:25:56;96594.28;;;24.00;31.75
9439;BME280;5176;42.622;25.386;2023-03-25T10:28:29;96597.78;;;24.01;31.22
9439;BME280;5176;42.622;25.386;2023-03-25T10:31:01;96590.03;;;24.19;31.64
9439;BME280;5176;42.622;25.386;2023-03-25T10:33:35;96582.53;;;24.36;32.10
9439;BME280;5176;42.622;25.386;2023-03-25T10:36:09;96578.25;;;24.41;30.97
9439;BME280;5176;42.622;25.386;2023-03-25T10:38:40;96578.47;;;24.60;31.40
9439;BME280;5176;42.622;25.386;2023-03-25T10:41:19;96586.38;;;24.68;30.49
9439;BME280;5176;42.622;25.386;2023-03-25T10:43:51;96575.03;;;24.79;31.02
9439;BME280;5176;42.622;25.386;2023-03-25T10:46:26;96566.78;;;24.87;30.78
9439;BME280;5176;42.622;25.386;2023-03-25T10:48:57;96565.34;;;24.85;30.03
9439;BME280;5176;42.622;25.386;2023-03-25T10:51:28;96558.97;;;24.86;30.29
9439;BME280;5176;42.622;25.386;2023-03-25T10:53:58;96549.03;;;24.73;30.11
9439;BME280;5176;42.622;25.386;2023-03-25T10:56:32;96544.50;;;24.67;30.58
9439;BME280;5176;42.622;25.386;2023-03-25T10:59:05;96546.53;;;24.58;30.12
9439;BME280;5176;42.622;25.386;2023-03-25T11:01:41;96535.63;;;24.60;30.40
9439;BME280;5176;42.622;25.386;2023-03-25T11:04:13;96532.91;;;24.53;30.33
9439;BME280;5176;42.622;25.386;2023-03-25T11:06:45;96524.88;;;24.46;29.86
9439;BME280;5176;42.622;25.386;2023-03-25T11:09:21;96521.81;;;24.63;30.83
9439;BME280;5176;42.622;25.386;2023-03-25T11:11:53;96521.84;;;24.76;30.30
9439;BME280;5176;42.622;25.386;2023-03-25T11:14:25;96519.38;;;24.81;30.16
9439;BME280;5176;42.622;25.386;2023-03-25T11:16:57;96514.03;;;24.94;29.63
9439;BME280;5176;42.622;25.386;2023-03-25T11:19:30;96511.34;;;25.01;30.00
9439;BME280;5176;42.622;25.386;2023-03-25T11:22:02;96516.50;;;25.03;29.70
9439;BME280;5176;42.622;25.386;2023-03-25T11:24:42;96508.47;;;24.89;29.96
9439;BME280;5176;42.622;25.386;2023-03-25T11:27:20;96506.00;;;24.81;30.74
9439;BME280;5176;42.622;25.386;2023-03-25T11:29:51;96497.53;;;24.97;30.45
9439;BME280;5176;42.622;25.386;2023-03-25T11:32:23;96489.09;;;25.20;29.56
9439;BME280;5176;42.622;25.386;2023-03-25T11:35:01;96488.69;;;25.23;29.67
9439;BME280;5176;42.622;25.386;2023-03-25T11:37:41;96484.13;;;25.31;29.89
9439;BME280;5176;42.622;25.386;2023-03-25T11:40:14;96485.38;;;25.41;29.61
9439;BME280;5176;42.622;25.386;2023-03-25T11:42:45;96479.34;;;25.52;29.34
9439;BME280;5176;42.622;25.386;2023-03-25T11:45:21;96482.84;;;25.46;28.95
9439;BME280;5176;42.622;25.386;2023-03-25T11:47:51;96478.13;;;25.55;29.55
9439;BME280;5176;42.622;25.386;2023-03-25T11:50:22;96471.84;;;25.68;29.38
9439;BME280;5176;42.622;25.386;2023-03-25T11:52:54;96468.81;;;25.58;29.29
9439;BME280;5176;42.622;25.386;2023-03-25T11:55:26;96469.47;;;25.20;29.56
9439;BME280;5176;42.622;25.386;2023-03-25T11:57:58;96461.03;;;25.03;30.22
9439;BME280;5176;42.622;25.386;2023-03-25T12:00:34;96449.88;;;24.99;30.22
9439;BME280;5176;42.622;25.386;2023-03-25T12:03:08;96448.25;;;25.18;30.25
9439;BME280;5176;42.622;25.386;2023-03-25T12:05:56;96446.53;;;25.50;29.89
9439;BME280;5176;42.622;25.386;2023-03-25T12:08:28;96436.41;;;25.52;29.65
9439;BME280;5176;42.622;25.386;2023-03-25T12:11:02;96437.72;;;25.30;29.75
9439;BME280;5176;42.622;25.386;2023-03-25T12:13:50;96425.56;;;25.01;30.28
9439;BME280;5176;42.622;25.386;2023-03-25T12:16:27;96430.50;;;24.84;31.15
9439;BME280;5176;42.622;25.386;2023-03-25T12:19:10;96433.41;;;25.03;31.15
9439;BME280;5176;42.622;25.386;2023-03-25T12:21:53;96423.09;;;25.13;31.03
9439;BME280;5176;42.622;25.386;2023-03-25T12:24:40;96427.16;;;25.48;31.40
9439;BME280;5176;42.622;25.386;2023-03-25T12:27:22;96426.22;;;25.68;31.74
9439;BME280;5176;42.622;25.386;2023-03-25T12:29:57;96422.94;;;25.66;32.68
9439;BME280;5176;42.622;25.386;2023-03-25T12:32:35;96418.47;;;25.46;32.80
9439;BME280;5176;42.622;25.386;2023-03-25T12:35:20;96408.56;;;25.40;32.88
9439;BME280;5176;42.622;25.386;2023-03-25T12:38:03;96415.63;;;25.41;32.77
9439;BME280;5176;42.622;25.386;2023-03-25T12:40:48;96402.19;;;25.41;33.41
9439;BME280;5176;42.622;25.386;2023-03-25T12:43:23;96398.44;;;25.56;33.35
9439;BME280;5176;42.622;25.386;2023-03-25T12:46:07;96397.41;;;25.50;33.72
9439;BME280;5176;42.622;25.386;2023-03-25T12:48:54;96392.47;;;25.47;33.58
9439;BME280;5176;42.622;25.386;2023-03-25T12:51:36;96368.78;;;25.37;32.96
9439;BME280;5176;42.622;25.386;2023-03-25T12:54:20;96389.97;;;25.52;32.34
9439;BME280;5176;42.622;25.386;2023-03-25T12:57:00;96395.09;;;25.60;32.58
9439;BME280;5176;42.622;25.386;2023-03-25T12:59:57;96395.84;;;25.80;32.93
9439;BME280;5176;42.622;25.386;2023-03-25T13:02:58;96394.41;;;25.85;32.22
9439;BME280;5176;42.622;25.386;2023-03-25T13:05:35;96396.69;;;25.81;31.42
9439;BME280;5176;42.622;25.386;2023-03-25T13:08:14;96390.94;;;25.71;29.76
9439;BME280;5176;42.622;25.386;2023-03-25T13:10:49;96391.59;;;25.60;30.24
9439;BME280;5176;42.622;25.386;2023-03-25T13:13:24;96386.78;;;25.23;30.65
9439;BME280;5176;42.622;25.386;2023-03-25T13:16:00;96392.78;;;25.06;29.89
9439;BME280;5176;42.622;25.386;2023-03-25T13:18:36;96366.41;;;24.76;29.26
9439;BME280;5176;42.622;25.386;2023-03-25T13:21:10;96383.69;;;25.00;29.71
9439;BME280;5176;42.622;25.386;2023-03-25T13:23:43;96375.03;;;25.18;29.18
9439;BME280;5176;42.622;25.386;2023-03-25T13:26:17;96378.25;;;25.33;28.33
9439;BME280;5176;42.622;25.386;2023-03-25T13:28:49;96375.81;;;25.32;28.54
9439;BME280;5176;42.622;25.386;2023-03-25T13:31:22;96371.88;;;25.34;28.75
9439;BME280;5176;42.622;25.386;2023-03-25T13:34:02;96374.78;;;25.26;28.56
9439;BME280;5176;42.622;25.386;2023-03-25T13:36:38;96375.66;;;24.93;29.26
9439;BME280;5176;42.622;25.386;2023-03-25T13:39:12;96371.34;;;24.86;29.69
9439;BME280;5176;42.622;25.386;2023-03-25T13:41:45;96359.97;;;25.04;29.73
9439;BME280;5176;42.622;25.386;2023-03-25T13:44:18;96363.66;;;25.29;29.28
9439;BME280;5176;42.622;25.386;2023-03-25T13:46:51;96366.63;;;25.59;28.77
9439;BME280;5176;42.622;25.386;2023-03-25T13:49:29;96347.03;;;25.52;28.71
9439;BME280;5176;42.622;25.386;2023-03-25T13:52:00;96356.38;;;25.43;28.16
9439;BME280;5176;42.622;25.386;2023-03-25T13:54:33;96347.94;;;25.33;28.96